sensor_id;sensor_type;location;lat;lon;timestamp;temperature;humidity
41437;DHT22;27178;49.460;10.850;2024-02-04T00:01:14;11.10;87.40
41437;DHT22;27178;49.460;10.850;2024-02-04T00:03:43;11.10;87.40
41437;DHT22;27178;49.460;10.850;2024-02-04T00:06:11;11.00;87.40
41437;DHT22;27178;49.460;10.850;2024-02-04T00:08:39;11.00;87.40
41437;DHT22;27178;49.460;10.850;2024-02-04T00:11:07;11.00;87.40
41437;DHT22;27178;49.460;10.850;2024-02-04T00:13:40;11.00;87.40
41437;DHT22;27178;49.460;10.850;2024-02-04T00:16:08;11.00;87.30
41437;DHT22;27178;49.460;10.850;2024-02-04T00:18:37;11.10;87.30
41437;DHT22;27178;49.460;10.850;2024-02-04T00:21:05;11.10;87.30
41437;DHT22;27178;49.460;10.850;2024-02-04T00:23:33;11.00;87.30
41437;DHT22;27178;49.460;10.850;2024-02-04T00:26:02;11.00;87.20
41437;DHT22;27178;49.460;10.850;2024-02-04T00:28:30;11.00;87.20
41437;DHT22;27178;49.460;10.850;2024-02-04T00:31:00;11.00;87.20
41437;DHT22;27178;49.460;10.850;2024-02-04T00:33:28;11.00;87.20
41437;DHT22;27178;49.460;10.850;2024-02-04T00:35:57;11.00;87.20
41437;DHT22;27178;49.460;10.850;2024-02-04T00:38:25;11.00;88.10
41437;DHT22;27178;49.460;10.850;2024-02-04T00:40:54;11.00;87.20
41437;DHT22;27178;49.460;10.850;2024-02-04T00:43:23;11.00;87.20
41437;DHT22;27178;49.460;10.850;2024-02-04T00:45:52;11.00;87.30
41437;DHT22;27178;49.460;10.850;2024-02-04T00:48:24;11.00;87.40
41437;DHT22;27178;49.460;10.850;2024-02-04T00:50:53;11.00;87.40
41437;DHT22;27178;49.460;10.850;2024-02-04T00:53:21;11.00;87.50
41437;DHT22;27178;49.460;10.850;2024-02-04T00:55:50;11.00;87.50
41437;DHT22;27178;49.460;10.850;2024-02-04T00:58:18;11.00;87.50
41437;DHT22;27178;49.460;10.850;2024-02-04T01:00:46;11.00;87.50
41437;DHT22;27178;49.460;10.850;2024-02-04T01:03:16;11.00;87.60
41437;DHT22;27178;49.460;10.850;2024-02-04T01:05:46;11.00;87.70
41437;DHT22;27178;49.460;10.850;2024-02-04T01:08:15;11.00;87.70
41437;DHT22;27178;49.460;10.850;2024-02-04T01:10:43;11.00;87.70
41437;DHT22;27178;49.460;10.850;2024-02-04T01:13:11;11.00;87.70
41437;DHT22;27178;49.460;10.850;2024-02-04T01:15:39;11.00;87.70
41437;DHT22;27178;49.460;10.850;2024-02-04T01:18:08;11.00;87.70
41437;DHT22;27178;49.460;10.850;2024-02-04T01:20:36;11.00;87.70
41437;DHT22;27178;49.460;10.850;2024-02-04T01:23:06;11.00;87.90
41437;DHT22;27178;49.460;10.850;2024-02-04T01:25:35;11.00;87.90
41437;DHT22;27178;49.460;10.850;2024-02-04T01:28:09;11.00;88.00
41437;DHT22;27178;49.460;10.850;2024-02-04T01:30:38;11.00;88.00
41437;DHT22;27178;49.460;10.850;2024-02-04T01:33:06;11.00;88.00
41437;DHT22;27178;49.460;10.850;2024-02-04T01:35:34;11.00;88.80
41437;DHT22;27178;49.460;10.850;2024-02-04T01:38:03;11.00;87.90
41437;DHT22;27178;49.460;10.850;2024-02-04T01:40:36;11.00;88.10
41437;DHT22;27178;49.460;10.850;2024-02-04T01:43:04;11.00;88.10
41437;DHT22;27178;49.460;10.850;2024-02-04T01:45:33;11.00;88.10
41437;DHT22;27178;49.460;10.850;2024-02-04T01:48:01;11.00;88.10
41437;DHT22;27178;49.460;10.850;2024-02-04T01:50:29;11.00;88.10
41437;DHT22;27178;49.460;10.850;2024-02-04T01:52:58;11.00;88.20
41437;DHT22;27178;49.460;10.850;2024-02-04T01:55:26;11.00;88.20
41437;DHT22;27178;49.460;10.850;2024-02-04T01:57:56;10.90;88.10
41437;DHT22;27178;49.460;10.850;2024-02-04T02:00:25;11.00;89.10
41437;DHT22;27178;49.460;10.850;2024-02-04T02:02:53;11.00;88.30
41437;DHT22;27178;49.460;10.850;2024-02-04T02:05:22;11.00;88.30
41437;DHT22;27178;49.460;10.850;2024-02-04T02:07:51;11.00;88.30
41437;DHT22;27178;49.460;10.850;2024-02-04T02:10:19;11.00;88.30
41437;DHT22;27178;49.460;10.850;2024-02-04T02:12:52;11.00;88.30
41437;DHT22;27178;49.460;10.850;2024-02-04T02:15:27;10.90;88.20
41437;DHT22;27178;49.460;10.850;2024-02-04T02:17:59;11.00;88.30
41437;DHT22;27178;49.460;10.850;2024-02-04T02:20:32;11.00;88.40
41437;DHT22;27178;49.460;10.850;2024-02-04T02:23:07;11.00;88.30
41437;DHT22;27178;49.460;10.850;2024-02-04T02:25:40;11.00;88.30
41437;DHT22;27178;49.460;10.850;2024-02-04T02:28:10;11.00;88.30
41437;DHT22;27178;49.460;10.850;2024-02-04T02:30:39;11.00;88.30
41437;DHT22;27178;49.460;10.850;2024-02-04T02:33:07;11.00;88.30
41437;DHT22;27178;49.460;10.850;2024-02-04T02:35:36;11.00;89.20
41437;DHT22;27178;49.460;10.850;2024-02-04T02:38:11;11.00;88.30
41437;DHT22;27178;49.460;10.850;2024-02-04T02:40:45;11.00;88.40
41437;DHT22;27178;49.460;10.850;2024-02-04T02:43:15;11.00;88.30
41437;DHT22;27178;49.460;10.850;2024-02-04T02:45:44;11.00;88.30
41437;DHT22;27178;49.460;10.850;2024-02-04T02:48:13;11.00;88.30
41437;DHT22;27178;49.460;10.850;2024-02-04T02:50:41;11.00;88.30
41437;DHT22;27178;49.460;10.850;2024-02-04T02:53:10;11.00;88.30
41437;DHT22;27178;49.460;10.850;2024-02-04T02:55:38;11.00;88.30
41437;DHT22;27178;49.460;10.850;2024-02-04T02:58:09;11.00;88.40
41437;DHT22;27178;49.460;10.850;2024-02-04T03:00:37;11.00;88.30
41437;DHT22;27178;49.460;10.850;2024-02-04T03:03:05;11.00;88.30
41437;DHT22;27178;49.460;10.850;2024-02-04T03:05:34;11.00;88.30
41437;DHT22;27178;49.460;10.850;2024-02-04T03:08:03;11.00;88.30
41437;DHT22;27178;49.460;10.850;2024-02-04T03:10:31;11.00;88.30
41437;DHT22;27178;49.460;10.850;2024-02-04T03:12:59;11.00;88.30
41437;DHT22;27178;49.460;10.850;2024-02-04T03:15:30;11.00;88.30
41437;DHT22;27178;49.460;10.850;2024-02-04T03:17:59;11.00;88.30
41437;DHT22;27178;49.460;10.850;2024-02-04T03:20:27;11.00;88.30
41437;DHT22;27178;49.460;10.850;2024-02-04T03:22:56;11.00;88.30
41437;DHT22;27178;49.460;10.850;2024-02-04T03:25:25;11.00;88.30
41437;DHT22;27178;49.460;10.850;2024-02-04T03:27:55;11.00;88.20
41437;DHT22;27178;49.460;10.850;2024-02-04T03:30:24;11.00;88.10
41437;DHT22;27178;49.460;10.850;2024-02-04T03:32:53;11.00;88.10
41437;DHT22;27178;49.460;10.850;2024-02-04T03:35:22;11.00;88.10
41437;DHT22;27178;49.460;10.850;2024-02-04T03:37:50;11.00;88.10
41437;DHT22;27178;49.460;10.850;2024-02-04T03:40:18;11.00;88.20
41437;DHT22;27178;49.460;10.850;2024-02-04T03:42:51;11.00;88.30
41437;DHT22;27178;49.460;10.850;2024-02-04T03:45:19;11.00;88.30
41437;DHT22;27178;49.460;10.850;2024-02-04T03:47:48;11.00;88.40
41437;DHT22;27178;49.460;10.850;2024-02-04T03:50:17;11.00;88.40
41437;DHT22;27178;49.460;10.850;2024-02-04T03:52:46;11.00;88.50
41437;DHT22;27178;49.460;10.850;2024-02-04T03:55:14;11.00;88.50
41437;DHT22;27178;49.460;10.850;2024-02-04T03:57:43;11.00;88.50
41437;DHT22;27178;49.460;10.850;2024-02-04T04:00:12;11.00;88.50
41437;DHT22;27178;49.460;10.850;2024-02-04T04:02:40;11.00;88.50
41437;DHT22;27178;49.460;10.850;2024-02-04T04:05:11;11.00;88.50
41437;DHT22;27178;49.460;10.850;2024-02-04T04:07:41;11.00;88.70
41437;DHT22;27178;49.460;10.850;2024-02-04T04:10:09;11.00;88.60
41437;DHT22;27178;49.460;10.850;2024-02-04T04:12:38;11.00;88.80
41437;DHT22;27178;49.460;10.850;2024-02-04T04:15:07;11.00;88.80
41437;DHT22;27178;49.460;10.850;2024-02-04T04:17:35;11.00;89.00
41437;DHT22;27178;49.460;10.850;2024-02-04T04:20:04;11.00;89.00
41437;DHT22;27178;49.460;10.850;2024-02-04T04:22:33;10.90;89.20
41437;DHT22;27178;49.460;10.850;2024-02-04T04:25:03;10.90;89.20
41437;DHT22;27178;49.460;10.850;2024-02-04T04:27:31;10.90;89.40
41437;DHT22;27178;49.460;10.850;2024-02-04T04:30:00;10.90;89.60
41437;DHT22;27178;49.460;10.850;2024-02-04T04:32:28;10.90;89.60
41437;DHT22;27178;49.460;10.850;2024-02-04T04:34:57;10.90;89.60
41437;DHT22;27178;49.460;10.850;2024-02-04T04:37:25;10.90;89.60
41437;DHT22;27178;49.460;10.850;2024-02-04T04:39:53;10.90;89.60
41437;DHT22;27178;49.460;10.850;2024-02-04T04:42:23;10.90;89.60
41437;DHT22;27178;49.460;10.850;2024-02-04T04:44:52;10.90;90.20
41437;DHT22;27178;49.460;10.850;2024-02-04T04:47:20;10.80;89.70
41437;DHT22;27178;49.460;10.850;2024-02-04T04:49:48;10.80;89.70
41437;DHT22;27178;49.460;10.850;2024-02-04T04:52:17;10.90;89.80
41437;DHT22;27178;49.460;10.850;2024-02-04T04:54:45;10.90;89.90
41437;DHT22;27178;49.460;10.850;2024-02-04T04:57:13;10.80;89.70
41437;DHT22;27178;49.460;10.850;2024-02-04T04:59:43;10.80;89.80
41437;DHT22;27178;49.460;10.850;2024-02-04T05:02:12;10.80;89.90
41437;DHT22;27178;49.460;10.850;2024-02-04T05:04:42;10.80;89.80
41437;DHT22;27178;49.460;10.850;2024-02-04T05:07:12;10.80;89.90
41437;DHT22;27178;49.460;10.850;2024-02-04T05:09:40;10.80;90.00
41437;DHT22;27178;49.460;10.850;2024-02-04T05:12:09;10.80;90.00
41437;DHT22;27178;49.460;10.850;2024-02-04T05:14:37;10.80;90.00
41437;DHT22;27178;49.460;10.850;2024-02-04T05:17:08;10.80;89.90
41437;DHT22;27178;49.460;10.850;2024-02-04T05:19:37;10.80;90.00
41437;DHT22;27178;49.460;10.850;2024-02-04T05:22:05;10.80;90.00
41437;DHT22;27178;49.460;10.850;2024-02-04T05:24:33;10.80;90.00
41437;DHT22;27178;49.460;10.850;2024-02-04T05:27:02;10.80;90.00
41437;DHT22;27178;49.460;10.850;2024-02-04T05:29:31;10.80;90.00
41437;DHT22;27178;49.460;10.850;2024-02-04T05:31:59;10.80;90.00
41437;DHT22;27178;49.460;10.850;2024-02-04T05:34:29;10.70;90.00
41437;DHT22;27178;49.460;10.850;2024-02-04T05:36:58;10.70;90.00
41437;DHT22;27178;49.460;10.850;2024-02-04T05:39:26;10.70;90.10
41437;DHT22;27178;49.460;10.850;2024-02-04T05:41:55;10.70;90.00
41437;DHT22;27178;49.460;10.850;2024-02-04T05:44:23;10.70;90.10
41437;DHT22;27178;49.460;10.850;2024-02-04T05:46:51;10.70;90.10
41437;DHT22;27178;49.460;10.850;2024-02-04T05:49:19;10.70;90.10
41437;DHT22;27178;49.460;10.850;2024-02-04T05:51:49;10.70;90.10
41437;DHT22;27178;49.460;10.850;2024-02-04T05:54:18;13.10;90.90
41437;DHT22;27178;49.460;10.850;2024-02-04T05:56:46;10.70;90.20
41437;DHT22;27178;49.460;10.850;2024-02-04T05:59:16;10.60;90.10
41437;DHT22;27178;49.460;10.850;2024-02-04T06:01:45;10.60;90.20
41437;DHT22;27178;49.460;10.850;2024-02-04T06:04:13;10.60;90.20
41437;DHT22;27178;49.460;10.850;2024-02-04T06:06:41;10.60;90.30
41437;DHT22;27178;49.460;10.850;2024-02-04T06:09:11;10.60;90.30
41437;DHT22;27178;49.460;10.850;2024-02-04T06:11:39;10.60;90.30
41437;DHT22;27178;49.460;10.850;2024-02-04T06:14:07;10.60;90.30
41437;DHT22;27178;49.460;10.850;2024-02-04T06:16:35;10.60;90.30
41437;DHT22;27178;49.460;10.850;2024-02-04T06:19:04;10.60;90.30
41437;DHT22;27178;49.460;10.850;2024-02-04T06:21:32;10.60;90.30
41437;DHT22;27178;49.460;10.850;2024-02-04T06:24:01;10.60;90.20
41437;DHT22;27178;49.460;10.850;2024-02-04T06:26:30;10.60;90.20
41437;DHT22;27178;49.460;10.850;2024-02-04T06:28:59;10.60;90.20
41437;DHT22;27178;49.460;10.850;2024-02-04T06:31:27;10.60;90.20
41437;DHT22;27178;49.460;10.850;2024-02-04T06:33:55;10.60;90.20
41437;DHT22;27178;49.460;10.850;2024-02-04T06:36:24;10.60;90.20
41437;DHT22;27178;49.460;10.850;2024-02-04T06:38:52;10.60;90.20
41437;DHT22;27178;49.460;10.850;2024-02-04T06:41:20;10.60;90.20
41437;DHT22;27178;49.460;10.850;2024-02-04T06:43:50;10.60;90.20
41437;DHT22;27178;49.460;10.850;2024-02-04T06:46:25;10.70;90.20
41437;DHT22;27178;49.460;10.850;2024-02-04T06:48:53;10.70;90.20
41437;DHT22;27178;49.460;10.850;2024-02-04T06:51:22;10.70;90.20
41437;DHT22;27178;49.460;10.850;2024-02-04T06:53:51;10.60;90.20
41437;DHT22;27178;49.460;10.850;2024-02-04T06:56:19;10.70;90.20
41437;DHT22;27178;49.460;10.850;2024-02-04T06:58:47;10.70;90.10
41437;DHT22;27178;49.460;10.850;2024-02-04T07:01:17;10.70;90.10
41437;DHT22;27178;49.460;10.850;2024-02-04T07:03:45;10.70;90.10
41437;DHT22;27178;49.460;10.850;2024-02-04T07:06:14;10.70;90.00
41437;DHT22;27178;49.460;10.850;2024-02-04T07:08:42;10.70;90.00
41437;DHT22;27178;49.460;10.850;2024-02-04T07:11:10;10.70;90.00
41437;DHT22;27178;49.460;10.850;2024-02-04T07:13:40;10.70;90.00
41437;DHT22;27178;49.460;10.850;2024-02-04T07:16:08;10.70;90.00
41437;DHT22;27178;49.460;10.850;2024-02-04T07:18:38;10.70;90.00
41437;DHT22;27178;49.460;10.850;2024-02-04T07:21:06;10.70;90.00
41437;DHT22;27178;49.460;10.850;2024-02-04T07:23:34;10.70;90.00
41437;DHT22;27178;49.460;10.850;2024-02-04T07:26:03;10.70;89.80
41437;DHT22;27178;49.460;10.850;2024-02-04T07:28:31;10.70;89.90
41437;DHT22;27178;49.460;10.850;2024-02-04T07:30:59;10.80;89.90
41437;DHT22;27178;49.460;10.850;2024-02-04T07:33:28;10.80;89.90
41437;DHT22;27178;49.460;10.850;2024-02-04T07:36:00;10.80;89.80
41437;DHT22;27178;49.460;10.850;2024-02-04T07:38:29;10.80;89.80
41437;DHT22;27178;49.460;10.850;2024-02-04T07:40:57;10.80;89.60
41437;DHT22;27178;49.460;10.850;2024-02-04T07:43:26;10.80;89.60
41437;DHT22;27178;49.460;10.850;2024-02-04T07:45:54;10.80;89.60
41437;DHT22;27178;49.460;10.850;2024-02-04T07:48:23;10.90;89.60
41437;DHT22;27178;49.460;10.850;2024-02-04T07:50:51;10.80;89.60
41437;DHT22;27178;49.460;10.850;2024-02-04T07:53:21;10.90;89.60
41437;DHT22;27178;49.460;10.850;2024-02-04T07:55:50;10.90;89.60
41437;DHT22;27178;49.460;10.850;2024-02-04T07:58:18;10.90;89.40
41437;DHT22;27178;49.460;10.850;2024-02-04T08:00:47;10.80;89.40
41437;DHT22;27178;49.460;10.850;2024-02-04T08:03:15;10.90;89.50
41437;DHT22;27178;49.460;10.850;2024-02-04T08:05:43;10.90;89.50
41437;DHT22;27178;49.460;10.850;2024-02-04T08:08:11;10.90;90.10
41437;DHT22;27178;49.460;10.850;2024-02-04T08:10:42;10.90;89.40
41437;DHT22;27178;49.460;10.850;2024-02-04T08:13:10;10.90;89.40
41437;DHT22;27178;49.460;10.850;2024-02-04T08:15:38;11.00;89.40
41437;DHT22;27178;49.460;10.850;2024-02-04T08:18:07;11.00;89.30
41437;DHT22;27178;49.460;10.850;2024-02-04T08:20:35;11.00;89.30
41437;DHT22;27178;49.460;10.850;2024-02-04T08:23:04;11.00;89.20
41437;DHT22;27178;49.460;10.850;2024-02-04T08:25:32;11.00;89.00
41437;DHT22;27178;49.460;10.850;2024-02-04T08:28:02;11.00;89.00
41437;DHT22;27178;49.460;10.850;2024-02-04T08:30:30;11.00;89.00
41437;DHT22;27178;49.460;10.850;2024-02-04T08:32:58;11.10;89.00
41437;DHT22;27178;49.460;10.850;2024-02-04T08:35:27;11.00;88.80
41437;DHT22;27178;49.460;10.850;2024-02-04T08:37:55;11.10;89.00
41437;DHT22;27178;49.460;10.850;2024-02-04T08:40:23;11.10;88.90
41437;DHT22;27178;49.460;10.850;2024-02-04T08:42:52;11.10;89.00
41437;DHT22;27178;49.460;10.850;2024-02-04T08:45:21;11.10;88.80
41437;DHT22;27178;49.460;10.850;2024-02-04T08:47:49;11.10;88.70
41437;DHT22;27178;49.460;10.850;2024-02-04T08:50:18;11.10;88.70
41437;DHT22;27178;49.460;10.850;2024-02-04T08:52:46;11.10;88.50
41437;DHT22;27178;49.460;10.850;2024-02-04T08:55:14;11.20;88.60
41437;DHT22;27178;49.460;10.850;2024-02-04T08:57:43;11.20;88.40
41437;DHT22;27178;49.460;10.850;2024-02-04T09:00:12;11.20;88.50
41437;DHT22;27178;49.460;10.850;2024-02-04T09:02:43;11.20;88.50
41437;DHT22;27178;49.460;10.850;2024-02-04T09:05:13;11.20;88.40
41437;DHT22;27178;49.460;10.850;2024-02-04T09:07:43;11.30;88.50
41437;DHT22;27178;49.460;10.850;2024-02-04T09:10:12;11.20;88.20
41437;DHT22;27178;49.460;10.850;2024-02-04T09:12:40;11.30;88.10
41437;DHT22;27178;49.460;10.850;2024-02-04T09:15:09;11.30;88.20
41437;DHT22;27178;49.460;10.850;2024-02-04T09:17:37;11.30;88.20
41437;DHT22;27178;49.460;10.850;2024-02-04T09:20:08;11.30;88.00
41437;DHT22;27178;49.460;10.850;2024-02-04T09:22:36;11.30;87.90
41437;DHT22;27178;49.460;10.850;2024-02-04T09:25:06;11.30;87.90
41437;DHT22;27178;49.460;10.850;2024-02-04T09:27:35;11.30;87.90
41437;DHT22;27178;49.460;10.850;2024-02-04T09:30:04;11.30;87.70
41437;DHT22;27178;49.460;10.850;2024-02-04T09:32:33;11.40;88.00
41437;DHT22;27178;49.460;10.850;2024-02-04T09:35:02;11.40;87.80
41437;DHT22;27178;49.460;10.850;2024-02-04T09:37:32;11.10;87.60
41437;DHT22;27178;49.460;10.850;2024-02-04T09:40:01;11.40;87.70
41437;DHT22;27178;49.460;10.850;2024-02-04T09:42:31;11.40;87.70
41437;DHT22;27178;49.460;10.850;2024-02-04T09:45:00;11.40;87.50
41437;DHT22;27178;49.460;10.850;2024-02-04T09:47:29;11.50;87.70
41437;DHT22;27178;49.460;10.850;2024-02-04T09:49:57;11.50;87.60
41437;DHT22;27178;49.460;10.850;2024-02-04T09:52:29;11.50;87.40
41437;DHT22;27178;49.460;10.850;2024-02-04T09:55:01;11.50;87.50
41437;DHT22;27178;49.460;10.850;2024-02-04T09:57:31;11.50;87.20
41437;DHT22;27178;49.460;10.850;2024-02-04T10:00:02;11.50;87.30
41437;DHT22;27178;49.460;10.850;2024-02-04T10:02:32;11.60;87.30
41437;DHT22;27178;49.460;10.850;2024-02-04T10:05:01;11.60;87.30
41437;DHT22;27178;49.460;10.850;2024-02-04T10:07:31;11.60;87.10
41437;DHT22;27178;49.460;10.850;2024-02-04T10:10:01;11.60;87.20
41437;DHT22;27178;49.460;10.850;2024-02-04T10:12:29;11.60;87.00
41437;DHT22;27178;49.460;10.850;2024-02-04T10:14:59;11.60;87.00
41437;DHT22;27178;49.460;10.850;2024-02-04T10:17:27;11.70;86.90
41437;DHT22;27178;49.460;10.850;2024-02-04T10:19:56;11.70;86.80
41437;DHT22;27178;49.460;10.850;2024-02-04T10:22:26;11.80;86.80
41437;DHT22;27178;49.460;10.850;2024-02-04T10:25:06;11.80;86.60
41437;DHT22;27178;49.460;10.850;2024-02-04T10:27:35;11.80;86.50
41437;DHT22;27178;49.460;10.850;2024-02-04T10:30:05;11.80;86.20
41437;DHT22;27178;49.460;10.850;2024-02-04T10:32:34;11.90;86.40
41437;DHT22;27178;49.460;10.850;2024-02-04T10:35:02;11.90;86.30
41437;DHT22;27178;49.460;10.850;2024-02-04T10:37:31;11.80;85.90
41437;DHT22;27178;49.460;10.850;2024-02-04T10:39:59;11.90;86.20
41437;DHT22;27178;49.460;10.850;2024-02-04T10:42:29;11.90;86.30
41437;DHT22;27178;49.460;10.850;2024-02-04T10:44:59;11.90;86.00
41437;DHT22;27178;49.460;10.850;2024-02-04T10:47:31;12.00;85.90
41437;DHT22;27178;49.460;10.850;2024-02-04T10:50:03;12.00;85.80
41437;DHT22;27178;49.460;10.850;2024-02-04T10:52:35;12.00;85.70
41437;DHT22;27178;49.460;10.850;2024-02-04T10:55:07;12.00;85.60
41437;DHT22;27178;49.460;10.850;2024-02-04T10:57:37;12.00;85.40
41437;DHT22;27178;49.460;10.850;2024-02-04T11:00:07;12.00;85.00
41437;DHT22;27178;49.460;10.850;2024-02-04T11:02:38;12.10;85.00
41437;DHT22;27178;49.460;10.850;2024-02-04T11:05:08;12.00;84.80
41437;DHT22;27178;49.460;10.850;2024-02-04T11:07:38;12.10;84.70
41437;DHT22;27178;49.460;10.850;2024-02-04T11:10:07;12.00;84.80
41437;DHT22;27178;49.460;10.850;2024-02-04T11:12:38;12.00;84.60
41437;DHT22;27178;49.460;10.850;2024-02-04T11:15:10;12.00;84.70
41437;DHT22;27178;49.460;10.850;2024-02-04T11:18:03;12.00;84.80
41437;DHT22;27178;49.460;10.850;2024-02-04T11:20:57;12.10;84.70
41437;DHT22;27178;49.460;10.850;2024-02-04T11:23:41;12.00;84.70
41437;DHT22;27178;49.460;10.850;2024-02-04T11:26:13;12.10;84.80
41437;DHT22;27178;49.460;10.850;2024-02-04T11:28:43;12.10;84.60
41437;DHT22;27178;49.460;10.850;2024-02-04T11:31:14;12.10;84.80
41437;DHT22;27178;49.460;10.850;2024-02-04T11:33:44;12.10;84.70
41437;DHT22;27178;49.460;10.850;2024-02-04T11:36:14;12.10;84.60
41437;DHT22;27178;49.460;10.850;2024-02-04T11:38:48;12.10;84.70
41437;DHT22;27178;49.460;10.850;2024-02-04T11:41:22;12.10;84.50
41437;DHT22;27178;49.460;10.850;2024-02-04T11:43:53;12.10;84.50
41437;DHT22;27178;49.460;10.850;2024-02-04T11:46:28;12.10;84.30
41437;DHT22;27178;49.460;10.850;2024-02-04T11:49:00;12.20;84.60
41437;DHT22;27178;49.460;10.850;2024-02-04T11:51:29;12.10;84.40
41437;DHT22;27178;49.460;10.850;2024-02-04T11:53:58;12.20;84.60
41437;DHT22;27178;49.460;10.850;2024-02-04T11:56:28;12.20;84.50
41437;DHT22;27178;49.460;10.850;2024-02-04T11:58:58;12.30;84.60
41437;DHT22;27178;49.460;10.850;2024-02-04T12:01:27;12.30;84.20
41437;DHT22;27178;49.460;10.850;2024-02-04T12:03:56;12.30;84.70
41437;DHT22;27178;49.460;10.850;2024-02-04T12:06:25;12.30;83.80
41437;DHT22;27178;49.460;10.850;2024-02-04T12:08:53;12.40;84.70
41437;DHT22;27178;49.460;10.850;2024-02-04T12:11:22;12.40;83.80
41437;DHT22;27178;49.460;10.850;2024-02-04T12:13:52;12.40;83.50
41437;DHT22;27178;49.460;10.850;2024-02-04T12:16:22;12.40;83.30
41437;DHT22;27178;49.460;10.850;2024-02-04T12:18:51;12.40;83.30
41437;DHT22;27178;49.460;10.850;2024-02-04T12:21:20;12.40;83.30
41437;DHT22;27178;49.460;10.850;2024-02-04T12:23:48;12.40;83.10
41437;DHT22;27178;49.460;10.850;2024-02-04T12:26:16;12.40;82.80
41437;DHT22;27178;49.460;10.850;2024-02-04T12:28:45;12.40;82.90
41437;DHT22;27178;49.460;10.850;2024-02-04T12:31:17;12.40;83.00
41437;DHT22;27178;49.460;10.850;2024-02-04T12:33:54;12.40;83.00
41437;DHT22;27178;49.460;10.850;2024-02-04T12:36:26;12.40;82.80
41437;DHT22;27178;49.460;10.850;2024-02-04T12:38:55;12.40;82.90
41437;DHT22;27178;49.460;10.850;2024-02-04T12:41:25;12.30;82.90
41437;DHT22;27178;49.460;10.850;2024-02-04T12:43:54;12.30;82.70
41437;DHT22;27178;49.460;10.850;2024-02-04T12:46:23;12.40;83.00
41437;DHT22;27178;49.460;10.850;2024-02-04T12:48:54;12.30;82.90
41437;DHT22;27178;49.460;10.850;2024-02-04T12:51:25;12.30;83.10
41437;DHT22;27178;49.460;10.850;2024-02-04T12:54:05;12.30;83.20
41437;DHT22;27178;49.460;10.850;2024-02-04T12:56:44;12.40;83.10
41437;DHT22;27178;49.460;10.850;2024-02-04T12:59:24;12.40;83.30
41437;DHT22;27178;49.460;10.850;2024-02-04T13:01:54;12.40;82.70
41437;DHT22;27178;49.460;10.850;2024-02-04T13:04:24;12.40;82.90
41437;DHT22;27178;49.460;10.850;2024-02-04T13:06:52;12.40;83.00
41437;DHT22;27178;49.460;10.850;2024-02-04T13:09:21;12.50;83.00
41437;DHT22;27178;49.460;10.850;2024-02-04T13:11:50;12.50;82.80
41437;DHT22;27178;49.460;10.850;2024-02-04T13:14:18;12.50;82.80
41437;DHT22;27178;49.460;10.850;2024-02-04T13:16:49;12.50;82.90
41437;DHT22;27178;49.460;10.850;2024-02-04T13:19:17;12.50;82.70
41437;DHT22;27178;49.460;10.850;2024-02-04T13:21:47;12.50;82.20
41437;DHT22;27178;49.460;10.850;2024-02-04T13:24:16;12.50;82.40
41437;DHT22;27178;49.460;10.850;2024-02-04T13:26:44;12.50;82.40
41437;DHT22;27178;49.460;10.850;2024-02-04T13:29:13;12.50;82.50
41437;DHT22;27178;49.460;10.850;2024-02-04T13:31:41;12.60;82.40
41437;DHT22;27178;49.460;10.850;2024-02-04T13:34:09;12.60;82.20
41437;DHT22;27178;49.460;10.850;2024-02-04T13:36:38;12.60;82.20
41437;DHT22;27178;49.460;10.850;2024-02-04T13:39:07;12.60;82.00
41437;DHT22;27178;49.460;10.850;2024-02-04T13:41:36;12.70;82.00
41437;DHT22;27178;49.460;10.850;2024-02-04T13:44:04;12.60;81.60
41437;DHT22;27178;49.460;10.850;2024-02-04T13:46:35;12.60;81.80
41437;DHT22;27178;49.460;10.850;2024-02-04T13:49:03;12.60;81.80
41437;DHT22;27178;49.460;10.850;2024-02-04T13:51:32;12.60;81.90
41437;DHT22;27178;49.460;10.850;2024-02-04T13:54:12;12.60;81.70
41437;DHT22;27178;49.460;10.850;2024-02-04T13:56:44;12.60;81.70
41437;DHT22;27178;49.460;10.850;2024-02-04T13:59:13;12.60;81.70
41437;DHT22;27178;49.460;10.850;2024-02-04T14:01:41;12.60;81.70
41437;DHT22;27178;49.460;10.850;2024-02-04T14:04:09;12.60;81.60
41437;DHT22;27178;49.460;10.850;2024-02-04T14:06:38;12.60;81.60
41437;DHT22;27178;49.460;10.850;2024-02-04T14:09:06;12.60;82.50
41437;DHT22;27178;49.460;10.850;2024-02-04T14:11:37;12.60;81.60
41437;DHT22;27178;49.460;10.850;2024-02-04T14:14:06;12.50;81.40
41437;DHT22;27178;49.460;10.850;2024-02-04T14:16:34;12.50;81.60
41437;DHT22;27178;49.460;10.850;2024-02-04T14:19:02;12.50;81.40
41437;DHT22;27178;49.460;10.850;2024-02-04T14:21:31;12.50;81.60
41437;DHT22;27178;49.460;10.850;2024-02-04T14:24:00;12.50;81.80
41437;DHT22;27178;49.460;10.850;2024-02-04T14:26:28;12.40;81.80
41437;DHT22;27178;49.460;10.850;2024-02-04T14:28:58;12.40;82.00
41437;DHT22;27178;49.460;10.850;2024-02-04T14:31:26;12.40;82.10
41437;DHT22;27178;49.460;10.850;2024-02-04T14:33:55;12.40;82.20
41437;DHT22;27178;49.460;10.850;2024-02-04T14:36:23;12.40;82.20
41437;DHT22;27178;49.460;10.850;2024-02-04T14:38:51;12.40;82.30
41437;DHT22;27178;49.460;10.850;2024-02-04T14:41:19;12.30;82.10
41437;DHT22;27178;49.460;10.850;2024-02-04T14:43:49;12.30;82.30
41437;DHT22;27178;49.460;10.850;2024-02-04T14:46:18;12.30;82.30
41437;DHT22;27178;49.460;10.850;2024-02-04T14:48:46;12.30;82.40
41437;DHT22;27178;49.460;10.850;2024-02-04T14:51:15;12.30;82.50
41437;DHT22;27178;49.460;10.850;2024-02-04T14:53:44;12.30;82.50
41437;DHT22;27178;49.460;10.850;2024-02-04T14:56:12;12.30;82.40
41437;DHT22;27178;49.460;10.850;2024-02-04T14:58:41;12.30;82.50
41437;DHT22;27178;49.460;10.850;2024-02-04T15:01:09;12.30;82.30
41437;DHT22;27178;49.460;10.850;2024-02-04T15:03:42;12.30;82.50
41437;DHT22;27178;49.460;10.850;2024-02-04T15:06:10;12.20;82.40
41437;DHT22;27178;49.460;10.850;2024-02-04T15:08:39;12.20;82.50
41437;DHT22;27178;49.460;10.850;2024-02-04T15:11:07;12.20;82.50
41437;DHT22;27178;49.460;10.850;2024-02-04T15:13:36;12.20;82.60
41437;DHT22;27178;49.460;10.850;2024-02-04T15:16:05;12.20;82.70
41437;DHT22;27178;49.460;10.850;2024-02-04T15:18:34;12.20;82.80
41437;DHT22;27178;49.460;10.850;2024-02-04T15:21:05;12.10;83.70
41437;DHT22;27178;49.460;10.850;2024-02-04T15:23:34;12.10;82.90
41437;DHT22;27178;49.460;10.850;2024-02-04T15:26:04;12.10;83.10
41437;DHT22;27178;49.460;10.850;2024-02-04T15:28:36;12.10;83.10